Nearby METAR Reports

 

PAEN - Kenai, Alaska, USA
Distance from station: ESE 2mi, 4km
Updated: Sun, 08-Dec-2019 11:33pm AKST
unable to load PAEN data RC=
unable to load PAEN data RC=
 
PASX - Soldotna, Alaska, USA
Distance from station: SE 12mi, 19km
Updated: Sun, 08-Dec-2019 10:56pm AKST
Light rain, Clear
Light rain, Clear
 Wind from NE
Wind: NE 12 mph , 19 km/h, Gust: 17 mph , 28 km/h
Temperature: 37°F , 3°C
Wind Chill: 29°F , -2°C
Dew Point: 30°F , -1°C
Humidity: 75%
Barometer: 29.50 inHg , 999 hPa
Summary: Light rain
Clouds: Clear
Visibility: 10 miles , 16 km
2019/12/09 07:56 PASX 090756Z AUTO 04010G15KT 10SM -RA CLR 03/M01 A2950 RMK AO2 RAB56 SLP000 P0000 T00281006
 
PANC - Anchorage Intl, Alaska, USA
Distance from station: NE 59mi, 96km
Updated: Sun, 08-Dec-2019 10:53pm AKST
Overcast
Overcast
 Wind from W
Wind: W 13 mph , 20 km/h
Temperature: 36°F , 2°C
Wind Chill: 27°F , -3°C
Dew Point: 27°F , -3°C
Humidity: 70%
Barometer: 29.57 inHg , 1001.4 hPa
Clouds: Overcast
Visibility: 10 miles , 16 km
Cloud details: Few Clouds 7000 ft
Mostly cloudy 12000 ft
Overcast 18000 ft
2019/12/09 07:53 PANC 090753Z 28011KT 10SM FEW070 BKN120 OVC180 02/M03 A2957 RMK AO2 SLP016 T00171028 $
PALH - Anchorage/Lake H, Alaska, USA
Distance from station: NE 61mi, 99km
Updated: Sun, 08-Dec-2019 10:53pm AKST
Few Clouds
Few Clouds
 Wind from W
Wind: W 7 mph , 11 km/h
Temperature: 34°F , 1°C
Wind Chill: 28°F , -2°C
Dew Point: 27°F , -3°C
Humidity: 75%
Barometer: 29.58 inHg , 1001.7 hPa
Clouds: Few Clouds
Visibility: 10 miles , 16 km
Cloud details: Few Clouds 7500 ft
Few Clouds 12000 ft
2019/12/09 07:53 PALH 090753Z 27006KT 10SM FEW075 FEW120 01/M03 A2958 RMK AO2 SLP018 T00061033
 
PAHO - Homer, Alaska, USA
Distance from station: S 66mi, 106km
Updated: Sun, 08-Dec-2019 10:53pm AKST
Light rain, Overcast
Light rain, Overcast
 Wind from ENE
Wind: ENE 17 mph , 28 km/h, Gust: 30 mph , 48 km/h
Temperature: 46°F , 8°C
Wind Chill: 39°F , 4°C
Dew Point: 39°F , 4°C
Humidity: 76%
Barometer: 29.31 inHg , 992.5 hPa
Summary: Light rain
Clouds: Overcast
Visibility: 10 miles , 16 km
Cloud details: Overcast 4000 ft
2019/12/09 07:53 PAHO 090753Z AUTO 07015G26KT 10SM -RA OVC040 08/04 A2931 RMK AO2 PK WND 08030/0709 SLP927 P0003 T00780044 TSNO
PAMR - Anchorage/Merril, Alaska, USA
Distance from station: NE 66mi, 106km
Updated: Sun, 08-Dec-2019 10:53pm AKST
Mostly cloudy
Mostly cloudy
 Wind from S
Wind: S 5 mph , 7 km/h
Temperature: 32°F , 0°C
Wind Chill: 27°F , -3°C
Dew Point: 27°F , -3°C
Humidity: 80%
Barometer: 29.56 inHg , 1001 hPa
Clouds: Mostly cloudy
Visibility: 10 miles , 16 km
Cloud details: Few Clouds 3000 ft
Partly cloudy 13000 ft
Mostly cloudy 20000 ft
2019/12/09 07:53 PAMR 090753Z 19004KT 10SM FEW030 SCT130 BKN200 00/M03 A2956 RMK AO2 SLP013 T00001033 $
 
PAED - Elmendorf Afb, Alaska, USA
Distance from station: NE 69mi, 110km
Updated: Sun, 08-Dec-2019 10:56pm AKST
Overcast
Overcast
 Wind from calm
Wind: Calm
Temperature: 32°F , 0°C
Dew Point: 28°F , -2°C
Humidity: 87%
Barometer: 29.56 inHg , 1001 hPa
Clouds: Overcast
Visibility: 10 miles , 16 km
Cloud details: Partly cloudy 7500 ft
Mostly cloudy 12000 ft
Overcast 16000 ft
2019/12/09 07:56 PAED 090756Z AUTO 00000KT 10SM SCT075 BKN120 OVC160 00/M02 A2956 RMK AO2 SLP007 T10021024 $
PAWD - Seward, Alaska, USA
Distance from station: ESE 71mi, 115km
Updated: Sun, 08-Dec-2019 10:53pm AKST
Light rain, Overcast
Light rain, Overcast
 Wind from SSW
Wind: SSW 3 mph , 6 km/h
Temperature: 37°F , 3°C
Dew Point: 36°F , 2°C
Humidity: 93%
Barometer: 29.55 inHg , 1000.7 hPa
Summary: Light rain
Clouds: Overcast
Visibility: 10 miles , 16 km
Cloud details: Few Clouds 3400 ft
Overcast 4500 ft
2019/12/09 07:53 PAWD 090753Z AUTO 21003KT 10SM -RA FEW034 OVC045 03/02 A2955 RMK AO2 SLP006 P0007 T00330022 TSNO
 
PASC - Deadhorse, Alaska, USA
Distance from station: ENE 670mi, 1078km
Updated: Sun, 08-Dec-2019 10:53pm AKST
Overcast
Overcast
 Wind from SSW
Wind: SSW 3 mph , 6 km/h
Temperature: 7°F , -14°C
Dew Point: 1°F , -17°C
Humidity: 78%
Barometer: 29.92 inHg , 1013.2 hPa
Clouds: Overcast
Visibility: 10 miles , 16 km
Cloud details: Overcast 7000 ft
2019/12/09 07:53 PASC 090753Z 21003KT 10SM OVC070 M14/M17 A2992 RMK AO2 SNE43 SLP134 T11391167
PAAD - Point Thomson, Alaska, USA
Distance from station: ENE 680mi, 1094km
Updated: Sun, 08-Dec-2019 11:15pm AKST
Light snow, Overcast
Light snow, Overcast
 Wind from SSW
Wind: SSW 5 mph , 7 km/h
Temperature: 9°F , -13°C
Wind Chill: 0°F , -18°C
Dew Point: 5°F , -15°C
Humidity: 85%
Barometer: 29.95 inHg , 1014.2 hPa
Summary: Light Snow
Clouds: Overcast
Visibility: 4 miles , 6 km
Cloud details: Partly cloudy 3300 ft
Mostly cloudy 4300 ft
Overcast 4800 ft
2019/12/09 08:15 PAAD 090815Z AUTO 21004KT 4SM -SN SCT033 BKN043 OVC048 M13/M15 A2995 RMK AO2 T11311148


kenaipeople.com website

Dans Automotive

Lower Peninsula Power Sports

Freddies RoadHouse

Alaska Weather Net